createdAt,value
2022-08-24T00:02:13.189Z,10.07
2022-08-24T00:04:46.842Z,7.70
2022-08-24T00:07:23.469Z,8.83
2022-08-24T00:10:02.844Z,9.07
2022-08-24T00:12:37.050Z,10.65
2022-08-24T00:15:12.886Z,8.43
2022-08-24T00:17:40.174Z,8.52
2022-08-24T00:20:15.858Z,8.80
2022-08-24T00:22:50.842Z,12.00
2022-08-24T00:25:19.608Z,7.97
2022-08-24T00:27:53.845Z,8.05
2022-08-24T00:30:20.990Z,7.75
2022-08-24T00:32:54.960Z,6.00
2022-08-24T00:35:28.836Z,7.00
2022-08-24T00:37:55.823Z,6.47
2022-08-24T00:40:44.054Z,6.90
2022-08-24T00:43:17.844Z,7.78
2022-08-24T00:45:48.681Z,6.30
2022-08-24T00:48:26.836Z,8.95
2022-08-24T00:51:06.821Z,7.43
2022-08-24T00:53:47.858Z,6.28
2022-08-24T00:56:37.423Z,6.57
2022-08-24T00:59:16.824Z,6.97
2022-08-24T01:01:44.498Z,6.65
2022-08-24T01:04:26.828Z,7.00
2022-08-24T01:07:01.043Z,6.38
2022-08-24T01:09:33.900Z,6.50
2022-08-24T01:12:00.928Z,6.27
2022-08-24T01:14:27.486Z,6.70
2022-08-24T01:17:18.855Z,7.40
2022-08-24T01:19:56.964Z,6.25
2022-08-24T01:22:53.501Z,4.72
2022-08-24T01:25:28.836Z,5.00
2022-08-24T01:27:57.416Z,5.68
2022-08-24T01:30:29.348Z,5.55
2022-08-24T01:33:12.849Z,4.78
2022-08-24T01:35:39.843Z,5.95
2022-08-24T01:38:16.818Z,5.97
2022-08-24T01:40:50.597Z,5.80
2022-08-24T01:43:23.817Z,8.75
2022-08-24T01:45:50.855Z,8.02
2022-08-24T01:48:24.829Z,7.63
2022-08-24T01:50:52.822Z,6.07
2022-08-24T01:53:27.038Z,6.93
2022-08-24T01:55:53.410Z,6.35
2022-08-24T01:58:19.981Z,5.93
2022-08-24T02:00:52.906Z,5.95
2022-08-24T02:03:20.652Z,5.90
2022-08-24T02:06:00.831Z,8.45
2022-08-24T02:08:27.554Z,7.00
2022-08-24T02:11:00.839Z,6.32
2022-08-24T02:13:28.699Z,5.75
2022-08-24T02:15:55.262Z,5.80
2022-08-24T02:18:27.832Z,6.30
2022-08-24T02:21:00.816Z,6.00
2022-08-24T02:23:28.761Z,6.15
2022-08-24T02:26:02.825Z,5.55
2022-08-24T02:28:35.814Z,5.53
2022-08-24T02:31:05.870Z,4.50
2022-08-24T02:33:34.680Z,5.38
2022-08-24T02:36:25.152Z,6.72
2022-08-24T02:38:54.296Z,5.25
2022-08-24T02:41:28.860Z,4.43
2022-08-24T02:44:03.036Z,5.00
2022-08-24T02:46:31.053Z,4.70
2022-08-24T02:49:12.132Z,4.78
2022-08-24T02:51:44.425Z,3.85
2022-08-24T02:54:19.857Z,2.97
2022-08-24T02:56:46.689Z,2.00
2022-08-24T02:59:20.834Z,1.60
2022-08-24T03:01:54.144Z,2.53
2022-08-24T03:04:34.035Z,7.63
2022-08-24T03:07:00.614Z,3.33
2022-08-24T03:09:28.814Z,4.25
2022-08-24T03:12:02.802Z,3.28
2022-08-24T03:14:29.437Z,5.95
2022-08-24T03:17:02.822Z,2.60
2022-08-24T03:19:29.668Z,2.40
2022-08-24T03:21:56.652Z,2.40
2022-08-24T03:24:30.935Z,5.78
2022-08-24T03:26:57.367Z,3.72
2022-08-24T03:29:33.669Z,4.20
2022-08-24T03:32:00.798Z,3.60
2022-08-24T03:34:34.804Z,7.63
2022-08-24T03:37:01.181Z,3.58
2022-08-24T03:39:33.823Z,3.90
2022-08-24T03:42:00.256Z,2.92
2022-08-24T03:44:27.023Z,5.13
2022-08-24T03:47:00.796Z,2.60
2022-08-24T03:49:27.343Z,2.92
2022-08-24T03:52:00.803Z,2.83
2022-08-24T03:54:27.227Z,7.13
2022-08-24T03:56:53.854Z,4.50
2022-08-24T03:59:26.834Z,4.22
2022-08-24T04:02:00.918Z,2.95
2022-08-24T04:04:43.166Z,5.85
2022-08-24T04:07:10.708Z,2.53
2022-08-24T04:09:44.812Z,4.87
2022-08-24T04:12:17.932Z,3.35
2022-08-24T04:14:51.050Z,2.92
2022-08-24T04:17:18.698Z,2.40
2022-08-24T04:20:06.857Z,4.25
2022-08-24T04:22:36.718Z,4.00
2022-08-24T04:25:13.018Z,3.95
2022-08-24T04:27:40.985Z,2.58
2022-08-24T04:30:15.015Z,2.30
2022-08-24T04:32:42.010Z,2.58
2022-08-24T04:35:15.823Z,4.13
2022-08-24T04:37:42.199Z,2.15
2022-08-24T04:40:09.465Z,2.70
2022-08-24T04:42:44.831Z,1.40
2022-08-24T04:45:11.289Z,1.85
2022-08-24T04:47:44.804Z,1.70
2022-08-24T04:50:11.820Z,1.55
2022-08-24T04:52:38.250Z,18.58
2022-08-24T04:55:11.797Z,3.53
2022-08-24T04:57:38.456Z,4.65
2022-08-24T05:00:18.849Z,4.10
2022-08-24T05:02:45.465Z,4.65
2022-08-24T05:05:18.801Z,3.60
2022-08-24T05:07:45.208Z,2.92
2022-08-24T05:10:18.810Z,10.82
2022-08-24T05:12:51.797Z,4.23
2022-08-24T05:15:18.786Z,3.33
2022-08-24T05:17:51.780Z,11.48
2022-08-24T05:20:18.522Z,12.18
2022-08-24T05:22:55.529Z,9.10
2022-08-24T05:25:22.418Z,12.93
2022-08-24T05:27:56.806Z,5.20
2022-08-24T05:30:23.296Z,7.65
2022-08-24T05:32:56.825Z,11.13
2022-08-24T05:35:23.215Z,11.02
2022-08-24T05:37:55.973Z,5.40
2022-08-24T05:40:33.404Z,4.30
2022-08-24T05:43:00.135Z,5.45
2022-08-24T05:45:26.530Z,5.63
2022-08-24T05:48:00.998Z,7.20
2022-08-24T05:50:34.780Z,5.43
2022-08-24T05:53:07.806Z,5.10
2022-08-24T05:55:44.985Z,6.85
2022-08-24T05:58:13.115Z,4.80
2022-08-24T06:00:56.787Z,7.93
2022-08-24T06:06:26.807Z,5.10
2022-08-24T06:09:02.774Z,7.45
2022-08-24T06:11:38.790Z,8.18
2022-08-24T06:14:08.788Z,6.90
2022-08-24T06:16:48.970Z,9.53
2022-08-24T06:19:25.812Z,7.95
2022-08-24T06:21:54.357Z,13.77
2022-08-24T06:24:48.810Z,9.63
2022-08-24T06:27:29.002Z,13.23
2022-08-24T06:30:01.915Z,11.40
2022-08-24T06:32:36.811Z,16.55
2022-08-24T06:35:03.841Z,14.02
2022-08-24T06:37:36.797Z,19.20
2022-08-24T06:40:03.846Z,12.43
2022-08-24T06:42:30.351Z,11.57
2022-08-24T06:45:03.790Z,12.80
2022-08-24T06:47:30.382Z,12.07
2022-08-24T06:49:59.135Z,14.23
2022-08-24T06:52:31.793Z,12.45
2022-08-24T06:54:58.451Z,12.30
2022-08-24T06:57:32.804Z,13.73
2022-08-24T06:59:59.253Z,16.02
2022-08-24T07:02:32.841Z,16.52
2022-08-24T07:04:59.957Z,16.02
2022-08-24T07:07:26.323Z,16.27
2022-08-24T07:09:59.772Z,16.80
2022-08-24T07:12:36.247Z,15.80
2022-08-24T07:15:15.825Z,16.08
2022-08-24T07:17:43.051Z,15.95
2022-08-24T07:20:16.801Z,16.13
2022-08-24T07:22:44.763Z,16.60
2022-08-24T07:25:13.078Z,15.80
2022-08-24T07:27:46.783Z,17.20
2022-08-24T07:30:28.167Z,22.33
2022-08-24T07:33:04.790Z,20.20
2022-08-24T07:35:32.923Z,15.65
2022-08-24T07:38:06.789Z,16.50
2022-08-24T07:40:55.731Z,20.60
2022-08-24T07:43:29.039Z,17.95
2022-08-24T07:45:55.513Z,16.43
2022-08-24T07:48:43.771Z,17.25
2022-08-24T07:51:12.761Z,15.68
2022-08-24T07:53:54.338Z,16.95
2022-08-24T07:56:21.164Z,19.55
2022-08-24T07:58:54.785Z,16.63
2022-08-24T08:01:34.830Z,17.35
2022-08-24T08:04:01.568Z,17.17
2022-08-24T08:06:28.029Z,17.77
2022-08-24T08:09:00.851Z,16.98
2022-08-24T08:11:27.439Z,21.00
2022-08-24T08:13:54.306Z,16.20
2022-08-24T08:16:28.892Z,21.65
2022-08-24T08:19:11.278Z,16.80
2022-08-24T08:22:11.804Z,16.95
2022-08-24T08:24:40.038Z,20.10
2022-08-24T08:27:12.792Z,21.20
2022-08-24T08:29:50.786Z,15.55
2022-08-24T08:32:19.904Z,13.73
2022-08-24T08:34:47.239Z,15.38
2022-08-24T08:37:22.843Z,12.80
2022-08-24T08:39:52.768Z,15.90
2022-08-24T08:42:50.801Z,13.85
2022-08-24T08:46:02.801Z,14.05
2022-08-24T08:49:00.846Z,12.32
2022-08-24T08:51:30.374Z,13.37
2022-08-24T08:54:38.869Z,11.90
2022-08-24T08:57:29.471Z,16.85
2022-08-24T09:00:22.813Z,10.18
2022-08-24T09:03:17.490Z,10.65
2022-08-24T09:06:18.800Z,8.67
2022-08-24T09:09:03.670Z,9.65
2022-08-24T09:12:10.800Z,10.48
2022-08-24T09:15:07.687Z,8.93
2022-08-24T09:18:06.781Z,9.82
2022-08-24T09:20:45.120Z,4.43
2022-08-24T09:23:36.839Z,4.78
2022-08-24T09:26:03.434Z,6.13
2022-08-24T09:28:40.812Z,4.13
2022-08-24T09:31:54.783Z,4.50
2022-08-24T09:34:28.817Z,2.13
2022-08-24T09:37:04.389Z,2.83
2022-08-24T09:39:43.900Z,5.95
2022-08-24T09:42:47.955Z,3.28
2022-08-24T09:45:43.831Z,2.85
2022-08-24T09:48:39.750Z,2.33
2022-08-24T09:51:34.768Z,1.92
2022-08-24T09:54:38.912Z,4.50
2022-08-24T10:00:34.672Z,1.73
2022-08-24T10:03:36.290Z,4.13
2022-08-24T10:06:39.828Z,3.65
2022-08-24T10:09:15.106Z,2.10
2022-08-24T10:12:08.786Z,1.55
2022-08-24T10:15:01.021Z,1.60
2022-08-24T10:17:42.781Z,3.87
2022-08-24T10:20:53.061Z,6.97
2022-08-24T10:23:34.782Z,2.13
2022-08-24T10:26:30.102Z,1.45
2022-08-24T10:29:24.786Z,3.50
2022-08-24T10:32:28.801Z,3.80
2022-08-24T10:35:26.822Z,3.00
2022-08-24T10:38:36.966Z,1.48
2022-08-24T10:41:22.816Z,1.70
2022-08-24T10:44:08.688Z,1.83
2022-08-24T10:46:44.794Z,1.73
2022-08-24T10:49:32.212Z,2.30
2022-08-24T10:52:32.798Z,1.75
2022-08-24T10:55:21.180Z,1.98
2022-08-24T10:58:20.822Z,1.98
2022-08-24T11:00:47.467Z,1.90
2022-08-24T11:03:34.787Z,1.48
2022-08-24T11:06:22.794Z,2.53
2022-08-24T11:09:20.795Z,2.33
2022-08-24T11:11:50.003Z,2.42
2022-08-24T11:14:22.839Z,1.10
2022-08-24T11:16:52.576Z,2.13
2022-08-24T11:19:33.807Z,1.90
2022-08-24T11:22:10.770Z,2.15
2022-08-24T11:24:50.809Z,2.03
2022-08-24T11:27:24.805Z,1.20
2022-08-24T11:29:51.406Z,2.40
2022-08-24T11:32:35.821Z,2.38
2022-08-24T11:35:15.978Z,2.47
2022-08-24T11:37:49.807Z,2.33
2022-08-24T11:40:18.217Z,3.17
2022-08-24T11:43:26.792Z,4.85
2022-08-24T11:46:18.555Z,0.90
2022-08-24T11:49:28.809Z,5.68
2022-08-24T11:52:07.117Z,1.67
2022-08-24T11:54:57.790Z,2.93
2022-08-24T11:57:24.090Z,1.20
2022-08-24T12:00:16.775Z,1.67
2022-08-24T12:03:07.811Z,1.83
2022-08-24T12:05:40.476Z,1.27
2022-08-24T12:08:37.097Z,0.97
2022-08-24T12:11:12.034Z,1.73
2022-08-24T12:13:54.792Z,3.40
2022-08-24T12:16:46.342Z,1.58
2022-08-24T12:19:28.794Z,3.92
2022-08-24T12:21:58.336Z,1.90
2022-08-24T12:24:51.796Z,2.35
2022-08-24T12:27:24.425Z,1.25
2022-08-24T12:30:12.810Z,1.45
2022-08-24T12:32:45.119Z,1.40
2022-08-24T12:35:27.775Z,1.10
2022-08-24T12:38:09.790Z,1.67
2022-08-24T12:40:40.111Z,1.42
2022-08-24T12:43:18.793Z,2.20
2022-08-24T12:45:45.762Z,1.30
2022-08-24T12:48:32.795Z,3.00
2022-08-24T12:51:29.642Z,2.10
2022-08-24T12:54:15.835Z,1.23
2022-08-24T12:56:51.931Z,2.10
2022-08-24T12:59:31.808Z,1.88
2022-08-24T13:02:30.845Z,0.77
2022-08-24T13:05:03.343Z,0.95
2022-08-24T13:07:46.791Z,1.27
2022-08-24T13:10:34.928Z,1.80
2022-08-24T13:13:11.004Z,1.67
2022-08-24T13:15:37.596Z,2.07
2022-08-24T13:18:07.237Z,3.25
2022-08-24T13:20:44.805Z,3.17
2022-08-24T13:23:11.163Z,2.25
2022-08-24T13:26:16.804Z,5.43
2022-08-24T13:28:49.909Z,1.00
2022-08-24T13:31:48.788Z,1.25
2022-08-24T13:34:16.681Z,4.65
2022-08-24T13:37:16.822Z,1.42
2022-08-24T13:40:04.657Z,1.92
2022-08-24T13:42:58.797Z,0.90
2022-08-24T13:45:43.780Z,1.20
2022-08-24T13:48:21.232Z,1.02
2022-08-24T13:51:20.804Z,0.73
2022-08-24T13:54:08.543Z,0.85
2022-08-24T13:57:11.087Z,1.47
2022-08-24T14:00:09.468Z,4.70
2022-08-24T14:03:03.797Z,3.13
2022-08-24T14:05:57.367Z,3.72
2022-08-24T14:08:46.220Z,1.45
2022-08-24T14:11:42.787Z,3.47
2022-08-24T14:14:38.825Z,1.85
2022-08-24T14:17:40.475Z,1.42
2022-08-24T14:20:34.811Z,1.35
2022-08-24T14:23:13.081Z,2.03
2022-08-24T14:25:46.808Z,4.73
2022-08-24T14:28:25.367Z,0.80
2022-08-24T14:31:26.800Z,2.30
2022-08-24T14:34:23.782Z,0.85
2022-08-24T14:37:02.354Z,1.63
2022-08-24T14:40:00.853Z,6.03
2022-08-24T14:42:38.791Z,1.40
2022-08-24T14:45:12.768Z,0.80
2022-08-24T14:48:11.921Z,3.55
2022-08-24T14:51:10.809Z,1.35
2022-08-24T14:53:50.960Z,2.33
2022-08-24T14:56:38.986Z,3.10
2022-08-24T14:59:19.067Z,5.85
2022-08-24T15:01:54.859Z,1.92
2022-08-24T15:04:37.981Z,3.88
2022-08-24T15:07:36.864Z,1.80
2022-08-24T15:10:11.945Z,1.23
2022-08-24T15:13:03.357Z,1.58
2022-08-24T15:15:39.504Z,1.40
2022-08-24T15:18:36.214Z,2.03
2022-08-24T15:21:27.819Z,1.13
2022-08-24T15:24:04.929Z,2.72
2022-08-24T15:27:20.789Z,2.28
2022-08-24T15:29:54.043Z,3.28
2022-08-24T15:32:28.795Z,1.67
2022-08-24T15:34:58.236Z,4.30
2022-08-24T15:37:46.895Z,1.95
2022-08-24T15:40:35.855Z,1.83
2022-08-24T15:43:13.003Z,1.02
2022-08-24T15:45:54.039Z,4.35
2022-08-24T15:48:30.835Z,3.80
2022-08-24T15:50:57.684Z,2.08
2022-08-24T15:53:47.012Z,2.08
2022-08-24T15:56:35.703Z,1.35
2022-08-24T15:59:19.130Z,1.27
2022-08-24T16:02:28.885Z,3.97
2022-08-24T16:05:16.794Z,5.90
2022-08-24T16:08:04.718Z,3.80
2022-08-24T16:10:46.790Z,1.20
2022-08-24T16:13:23.594Z,2.13
2022-08-24T16:16:04.786Z,1.37
2022-08-24T16:18:49.704Z,1.38
2022-08-24T16:21:56.841Z,1.95
2022-08-24T16:24:36.147Z,2.50
2022-08-24T16:27:23.816Z,2.45
2022-08-24T16:29:53.874Z,2.87
2022-08-24T16:32:49.662Z,1.38
2022-08-24T16:35:27.041Z,5.28
2022-08-24T16:38:03.170Z,4.35
2022-08-24T16:40:40.952Z,2.30
2022-08-24T16:43:13.983Z,12.50
2022-08-24T16:45:48.965Z,5.18
2022-08-24T16:48:15.934Z,3.20
2022-08-24T16:50:42.422Z,1.33
2022-08-24T16:53:16.994Z,3.63
2022-08-24T16:55:43.391Z,1.60
2022-08-24T16:58:16.832Z,1.52
2022-08-24T17:00:51.847Z,1.40
2022-08-24T17:03:18.315Z,1.65
2022-08-24T17:05:52.803Z,2.08
2022-08-24T17:08:19.230Z,2.03
2022-08-24T17:10:52.822Z,1.98
2022-08-24T17:13:48.274Z,1.40
2022-08-24T17:16:13.522Z,1.23
2022-08-24T17:18:47.803Z,1.92
2022-08-24T17:21:14.215Z,2.87
2022-08-24T17:23:41.712Z,4.60
2022-08-24T17:26:20.677Z,1.67
2022-08-24T17:28:49.404Z,1.00
2022-08-24T17:31:23.024Z,3.33
2022-08-24T17:33:59.237Z,2.80
2022-08-24T17:36:33.035Z,3.85
2022-08-24T17:39:00.225Z,2.60
2022-08-24T17:41:27.224Z,3.63
2022-08-24T17:44:00.793Z,2.10
2022-08-24T17:46:39.005Z,2.87
2022-08-24T17:49:14.819Z,5.80
2022-08-24T17:51:43.092Z,1.83
2022-08-24T17:54:15.800Z,2.85
2022-08-24T17:56:44.557Z,4.38
2022-08-24T17:59:31.778Z,3.77
2022-08-24T18:02:00.908Z,1.88
2022-08-24T18:04:36.863Z,1.33
2022-08-24T18:07:07.711Z,3.05
2022-08-24T18:09:52.798Z,2.20
2022-08-24T18:12:22.454Z,1.90
2022-08-24T18:14:50.542Z,1.52
2022-08-24T18:17:28.003Z,1.50
2022-08-24T18:19:54.671Z,15.10
2022-08-24T18:22:27.809Z,3.08
2022-08-24T18:24:54.200Z,1.50
2022-08-24T18:27:38.804Z,1.50
2022-08-24T18:30:29.038Z,2.90
2022-08-24T18:33:04.986Z,2.08
2022-08-24T18:35:39.004Z,2.35
2022-08-24T18:38:05.619Z,1.77
2022-08-24T18:40:32.994Z,1.10
2022-08-24T18:43:07.151Z,1.20
2022-08-24T18:45:40.886Z,6.47
2022-08-24T18:48:07.378Z,2.65
2022-08-24T18:50:37.669Z,3.23
2022-08-24T18:53:13.788Z,1.60
2022-08-24T18:55:55.045Z,3.75
2022-08-24T18:58:21.516Z,1.70
2022-08-24T19:00:49.283Z,3.15
2022-08-24T19:03:27.788Z,7.10
2022-08-24T19:05:55.115Z,5.03
2022-08-24T19:08:31.085Z,3.75
2022-08-24T19:10:57.541Z,3.95
2022-08-24T19:13:30.824Z,2.30
2022-08-24T19:15:58.151Z,1.80
2022-08-24T19:18:25.080Z,3.28
2022-08-24T19:21:03.013Z,4.25
2022-08-24T19:23:33.355Z,3.65
2022-08-24T19:26:08.916Z,3.28
2022-08-24T19:28:35.320Z,5.00
2022-08-24T19:31:07.407Z,5.15
2022-08-24T19:33:46.800Z,5.13
2022-08-24T19:36:24.031Z,6.28
2022-08-24T19:38:57.000Z,3.13
2022-08-24T19:41:23.638Z,6.90
2022-08-24T19:44:32.970Z,3.58
2022-08-24T19:46:59.640Z,4.28
2022-08-24T19:49:26.282Z,7.75
2022-08-24T19:52:00.769Z,3.97
2022-08-24T19:54:33.197Z,6.90
2022-08-24T19:57:07.040Z,4.03
2022-08-24T19:59:37.758Z,7.30
2022-08-24T20:02:11.049Z,5.30
2022-08-24T20:04:38.037Z,6.00
2022-08-24T20:07:12.810Z,5.00
2022-08-24T20:09:39.216Z,4.10
2022-08-24T20:12:05.852Z,3.88
2022-08-24T20:14:38.987Z,4.30
2022-08-24T20:17:05.789Z,4.82
2022-08-24T20:19:42.989Z,4.73
2022-08-24T20:22:13.156Z,7.93
2022-08-24T20:24:46.800Z,4.93
2022-08-24T20:27:21.543Z,7.47
2022-08-24T20:29:54.806Z,5.75
2022-08-24T20:32:35.870Z,5.93
2022-08-24T20:35:10.819Z,6.10
2022-08-24T20:37:40.568Z,6.57
2022-08-24T20:40:14.886Z,7.40
2022-08-24T20:42:41.867Z,7.53
2022-08-24T20:45:12.656Z,9.13
2022-08-24T20:47:52.003Z,6.68
2022-08-24T20:50:21.599Z,7.30
2022-08-24T20:52:51.079Z,6.97
2022-08-24T20:55:24.792Z,7.30
2022-08-24T20:58:01.816Z,8.00
2022-08-24T21:00:29.374Z,5.93
2022-08-24T21:03:03.153Z,7.13
2022-08-24T21:05:29.765Z,6.90
2022-08-24T21:08:04.808Z,7.22
2022-08-24T21:10:39.001Z,6.43
2022-08-24T21:13:11.990Z,7.50
2022-08-24T21:15:46.824Z,9.40
2022-08-24T21:18:20.843Z,8.20
2022-08-24T21:21:03.305Z,7.75
2022-08-24T21:23:30.672Z,7.60
2022-08-24T21:26:04.773Z,7.18
2022-08-24T21:28:32.001Z,6.82
2022-08-24T21:31:06.338Z,7.10
2022-08-24T21:34:06.987Z,7.00
2022-08-24T21:36:40.803Z,5.70
2022-08-24T21:39:10.971Z,6.60
2022-08-24T21:41:38.077Z,7.45
2022-08-24T21:44:10.972Z,6.53
2022-08-24T21:46:46.771Z,7.00
2022-08-24T21:49:21.005Z,6.30
2022-08-24T21:51:53.778Z,6.45
2022-08-24T21:54:26.764Z,6.75
2022-08-24T21:56:53.585Z,6.80
2022-08-24T21:59:26.769Z,5.03
2022-08-24T22:01:59.854Z,5.70
2022-08-24T22:04:26.432Z,5.93
2022-08-24T22:07:00.768Z,6.55
2022-08-24T22:09:28.064Z,7.55
2022-08-24T22:12:02.773Z,5.60
2022-08-24T22:14:29.296Z,4.93
2022-08-24T22:16:55.716Z,4.97
2022-08-24T22:19:28.768Z,5.70
2022-08-24T22:21:55.164Z,6.50
2022-08-24T22:24:21.549Z,7.43
2022-08-24T22:26:54.760Z,5.93
2022-08-24T22:29:21.198Z,4.55
2022-08-24T22:32:01.777Z,6.03
2022-08-24T22:34:28.163Z,6.40
2022-08-24T22:36:56.929Z,6.80
2022-08-24T22:39:30.793Z,5.83
2022-08-24T22:41:57.689Z,7.88
2022-08-24T22:44:31.786Z,6.40
2022-08-24T22:47:00.433Z,5.63
2022-08-24T22:49:36.790Z,6.07
2022-08-24T22:52:04.466Z,6.40
2022-08-24T22:54:30.908Z,6.00
2022-08-24T22:57:04.807Z,6.22
2022-08-24T22:59:42.943Z,6.53
2022-08-24T23:02:16.571Z,6.50
2022-08-24T23:04:54.831Z,7.90
2022-08-24T23:07:21.388Z,5.28
2022-08-24T23:09:54.776Z,6.90
2022-08-24T23:12:23.183Z,6.03
2022-08-24T23:14:59.034Z,5.05
2022-08-24T23:17:25.637Z,4.97
2022-08-24T23:20:08.788Z,5.22
2022-08-24T23:22:38.463Z,5.53
2022-08-24T23:25:20.763Z,5.07
2022-08-24T23:27:50.053Z,5.78
2022-08-24T23:30:17.020Z,8.83
2022-08-24T23:32:49.826Z,5.97
2022-08-24T23:35:22.991Z,5.82
2022-08-24T23:37:49.567Z,6.90
2022-08-24T23:40:25.019Z,5.88
2022-08-24T23:42:51.997Z,5.80
2022-08-24T23:45:18.870Z,7.22
2022-08-24T23:48:00.862Z,6.68
2022-08-24T23:50:34.771Z,6.50
2022-08-24T23:53:01.209Z,6.25
2022-08-24T23:55:34.765Z,5.43
2022-08-24T23:58:01.221Z,5.45
